Current Conditions
Partly Cloudy
Conditions



Pressure
1018.62 (kPa) - 30.08 (inHG)
Visibility

32.0 (km) - 19.9 (miles)
   Temperature
17  °C
63°F
12  °C
Dewpoint
73  %
 Humidity
   Wind Speed
10  km/h
5  kts
6  mph
2.7  m/s
   Wind Direction
 10°
Due North
   Airport Data
CYQQ
Location Comox Valley Airport / CFB Comox 49 km (30.45 mi)
Metar :CYQQ 242000Z 01005KT 20SM FEW120 BKN240 17/12 A3008 RMK AC1CI4 SLP187
Fri 24th September 12:00 pm
   Raw Metar Info
Raw METAR is the most common format in the world for the transmission of observational weather data. It is highly standardized through the International Civil Aviation Organization (ICAO), which allows it to be understood throughout most of the world.
   API Info
Data Provided by
https://www.checkwx.com/weather/CYQQ
   © Info
CSS/SVG/PHP scripts were developed by weather34.com for use in the weather34 template © 2015-2021

Guide Info provided by Metar-Wikipedia